Graff, Missouri
Current Conditions -  °F | °C
As of 11:13 PM on Friday 19 Dec 2014 (Local Time) from KTBN Reporting Station
Overcast Overcast  
Wind Chill: 32°   Ceiling: 400
Heat Index: 36°   Visibility: 10mi
Dew Point: 36°   Wind: 5mph
Humidity: 100%   Direction: 160°SSE
Pressure: 30.2"   Gusts: NA
Location:  37.32°N, 92.28°W
Report Text: KTBN 200513Z AUTO 16004KT 10SM OVC004 02/02 A3020 RMK AO2
Loading
Personal Weather Stations






























Interactive Weather Map New forecast layout! Learn more

10-Day Weather Forecast

Advertisements
Track Severe Weather on mobile